createdAt,value
2017-05-26T00:00:13.303Z,92.14
2017-05-26T00:00:26.910Z,92.05
2017-05-26T00:00:40.399Z,91.75
2017-05-26T00:00:53.951Z,91.66
2017-05-26T00:01:07.353Z,91.47
2017-05-26T00:01:20.213Z,92.05
2017-05-26T00:01:33.671Z,91.95
2017-05-26T00:01:46.712Z,91.95
2017-05-26T00:02:00.260Z,91.56
2017-05-26T00:02:13.265Z,91.56
2017-05-26T00:02:26.767Z,91.75
2017-05-26T00:02:39.570Z,91.75
2017-05-26T00:02:52.951Z,91.66
2017-05-26T00:03:06.444Z,91.56
2017-05-26T00:03:19.985Z,91.66
2017-05-26T00:03:32.921Z,91.66
2017-05-26T00:03:45.911Z,91.85
2017-05-26T00:03:58.925Z,91.47
2017-05-26T00:04:10.862Z,91.47
2017-05-26T00:04:24.346Z,91.28
2017-05-26T00:04:37.277Z,91.18
2017-05-26T00:04:50.133Z,91.18
2017-05-26T00:05:03.105Z,91.47
2017-05-26T00:05:15.227Z,91.37
2017-05-26T00:05:28.613Z,91.47
2017-05-26T00:05:42.054Z,91.37
2017-05-26T00:05:55.570Z,91.18
2017-05-26T00:06:07.976Z,91.28
2017-05-26T00:06:20.876Z,91.37
2017-05-26T00:06:34.532Z,91.28
2017-05-26T00:06:48.030Z,91.28
2017-05-26T00:07:01.566Z,91.28
2017-05-26T00:07:13.995Z,91.37
2017-05-26T00:07:27.493Z,91.56
2017-05-26T00:07:41.166Z,91.28
2017-05-26T00:07:54.587Z,91.08
2017-05-26T00:08:08.105Z,91.37
2017-05-26T00:08:20.696Z,90.89
2017-05-26T00:08:33.995Z,91.08
2017-05-26T00:08:47.449Z,91.08
2017-05-26T00:09:02.348Z,90.99
2017-05-26T00:09:17.804Z,91.08
2017-05-26T00:09:31.312Z,90.89
2017-05-26T00:09:44.723Z,91.28
2017-05-26T00:09:59.369Z,91.08
2017-05-26T00:10:12.418Z,91.18
2017-05-26T00:10:25.916Z,91.18
2017-05-26T00:10:39.354Z,91.18
2017-05-26T00:10:52.286Z,90.8
2017-05-26T00:11:05.769Z,90.8
2017-05-26T00:11:18.842Z,90.8
2017-05-26T00:11:33.850Z,90.8
2017-05-26T00:11:46.757Z,90.89
2017-05-26T00:11:59.777Z,90.7
2017-05-26T00:12:12.244Z,90.99
2017-05-26T00:12:25.684Z,90.7
2017-05-26T00:12:38.620Z,90.7
2017-05-26T00:12:53.184Z,90.41
2017-05-26T00:13:06.682Z,90.99
2017-05-26T00:13:20.167Z,90.7
2017-05-26T00:13:32.693Z,90.7
2017-05-26T00:13:49.820Z,90.89
2017-05-26T00:14:03.907Z,90.99
2017-05-26T00:14:16.758Z,90.7
2017-05-26T00:14:29.732Z,90.7
2017-05-26T00:14:42.125Z,90.51
2017-05-26T00:14:56.344Z,90.6
2017-05-26T00:15:09.821Z,90.89
2017-05-26T00:15:23.536Z,90.99
2017-05-26T00:15:40.724Z,90.7
2017-05-26T00:16:05.360Z,90.7
2017-05-26T00:16:21.081Z,90.8
2017-05-26T00:16:34.013Z,90.41
2017-05-26T00:16:46.505Z,90.8
2017-05-26T00:16:59.722Z,90.8
2017-05-26T00:17:11.590Z,90.8
2017-05-26T00:17:25.080Z,90.89
2017-05-26T00:17:38.016Z,90.89
2017-05-26T00:17:50.908Z,90.8
2017-05-26T00:18:04.621Z,90.99
2017-05-26T00:18:17.613Z,90.41
2017-05-26T00:18:30.083Z,90.89
2017-05-26T00:18:43.120Z,90.6
2017-05-26T00:18:58.735Z,90.12
2017-05-26T00:19:12.144Z,90.41
2017-05-26T00:19:25.623Z,90.41
2017-05-26T00:19:39.842Z,90.31
2017-05-26T00:19:53.331Z,90.22
2017-05-26T00:20:06.214Z,90.22
2017-05-26T00:20:19.781Z,90.22
2017-05-26T00:20:34.373Z,90.31
2017-05-26T00:20:47.795Z,90.22
2017-05-26T00:21:00.688Z,90.31
2017-05-26T00:21:13.657Z,90.51
2017-05-26T00:21:26.605Z,90.31
2017-05-26T00:21:40.614Z,90.51
2017-05-26T00:21:53.546Z,90.41
2017-05-26T00:22:06.638Z,90.41
2017-05-26T00:22:18.936Z,90.6
2017-05-26T00:22:31.892Z,90.31
2017-05-26T00:22:45.946Z,90.51
2017-05-26T00:23:14.654Z,90.41
2017-05-26T00:23:27.917Z,90.51
2017-05-26T00:23:41.136Z,90.41
2017-05-26T00:23:54.936Z,90.41
2017-05-26T00:24:08.662Z,90.31
2017-05-26T00:24:24.598Z,90.31
2017-05-26T00:24:37.615Z,90.31
2017-05-26T00:24:51.043Z,89.83
2017-05-26T00:25:03.910Z,89.83
2017-05-26T00:25:17.279Z,89.83
2017-05-26T00:25:30.823Z,90.03
2017-05-26T00:25:43.760Z,90.12
2017-05-26T00:25:57.241Z,90.22
2017-05-26T00:26:40.273Z,90.12
2017-05-26T00:27:37.239Z,89.93
2017-05-26T00:27:51.023Z,90.03
2017-05-26T00:28:05.227Z,90.12
2017-05-26T00:28:17.711Z,90.12
2017-05-26T00:29:04.220Z,89.93
2017-05-26T00:29:18.472Z,89.83
2017-05-26T00:29:33.926Z,89.83
2017-05-26T00:30:11.433Z,89.83
2017-05-26T00:30:30.128Z,90.03
2017-05-26T00:30:48.441Z,90.03
2017-05-26T00:31:01.953Z,89.93
2017-05-26T00:31:22.094Z,90.08
2017-05-26T00:31:34.510Z,90.03
2017-05-26T00:31:47.427Z,90.22
2017-05-26T00:32:01.676Z,90.08
2017-05-26T00:32:15.400Z,90.03
2017-05-26T00:32:29.061Z,89.89
2017-05-26T00:32:41.866Z,90.03
2017-05-26T00:32:55.512Z,89.89
2017-05-26T00:33:08.708Z,89.89
2017-05-26T00:33:23.003Z,89.6
2017-05-26T00:33:35.963Z,89.64
2017-05-26T00:33:49.457Z,89.69
2017-05-26T00:34:02.339Z,89.74
2017-05-26T00:34:38.319Z,89.69
2017-05-26T00:34:56.933Z,89.79
2017-05-26T00:35:13.553Z,89.79
2017-05-26T00:35:40.024Z,89.89
2017-05-26T00:35:54.315Z,89.89
2017-05-26T00:36:07.672Z,89.79
2017-05-26T00:36:21.434Z,89.6
2017-05-26T00:36:37.730Z,89.4
2017-05-26T00:36:51.960Z,89.79
2017-05-26T00:37:36.123Z,89.6
2017-05-26T00:40:16.044Z,89.31
2017-05-26T00:40:36.057Z,89.5
2017-05-26T00:41:01.513Z,89.12
2017-05-26T00:41:19.513Z,89.22
2017-05-26T00:41:49.722Z,89.12
2017-05-26T00:42:50.154Z,89.12
2017-05-26T00:43:09.508Z,88.64
2017-05-26T00:43:27.102Z,88.64
2017-05-26T00:44:20.489Z,88.64
2017-05-26T00:46:02.889Z,88.35
2017-05-26T00:46:53.248Z,88.54
2017-05-26T00:47:07.592Z,88.16
2017-05-26T00:47:33.480Z,88.06
2017-05-26T00:47:57.241Z,87.58
2017-05-26T00:48:35.917Z,87.87
2017-05-26T00:49:20.808Z,87.92
2017-05-26T00:49:33.635Z,87.92
2017-05-26T00:49:59.906Z,88.11
2017-05-26T00:50:34.805Z,87.49
2017-05-26T00:51:00.615Z,87.54
2017-05-26T00:51:13.984Z,87.63
2017-05-26T00:51:33.177Z,87.05
2017-05-26T00:52:17.283Z,87.25
2017-05-26T00:53:52.006Z,87.15
2017-05-26T00:54:17.134Z,86.96
2017-05-26T00:54:30.894Z,86.96
2017-05-26T00:56:53.064Z,86.96
2017-05-26T00:57:13.057Z,86.48
2017-05-26T00:58:01.170Z,86.58
2017-05-26T00:58:15.768Z,86.29
2017-05-26T00:58:32.831Z,86.38
2017-05-26T00:58:51.417Z,86.48
2017-05-26T00:59:07.174Z,86.48
2017-05-26T00:59:51.992Z,86.38
2017-05-26T01:00:05.166Z,86.68
2017-05-26T01:00:18.147Z,86.29
2017-05-26T01:00:44.119Z,85.91
2017-05-26T01:01:28.275Z,86.1
2017-05-26T01:02:52.237Z,86.19
2017-05-26T01:03:50.788Z,85.91
2017-05-26T01:04:49.488Z,86.38
2017-05-26T01:05:54.379Z,86.14
2017-05-26T01:06:09.510Z,86
2017-05-26T01:06:22.354Z,86.19
2017-05-26T01:10:49.207Z,86.81
2017-05-26T01:11:33.851Z,86.81
2017-05-26T01:12:17.897Z,86.81
2017-05-26T01:13:08.989Z,86.52
2017-05-26T01:13:27.498Z,86.72
2017-05-26T01:14:55.705Z,86.91
2017-05-26T01:15:34.809Z,87.01
2017-05-26T01:16:19.310Z,86.72
2017-05-26T01:19:24.486Z,86.58
2017-05-26T01:36:02.238Z,86.48
2017-05-26T01:37:33.098Z,86.48
2017-05-26T01:38:18.710Z,86.19
2017-05-26T01:38:31.582Z,86.29
2017-05-26T01:40:04.772Z,86
2017-05-26T01:44:22.248Z,85.14
2017-05-26T01:44:38.079Z,85.14
2017-05-26T01:45:21.870Z,85.04
2017-05-26T01:46:29.078Z,84.85
2017-05-26T01:47:25.223Z,84.56
2017-05-26T01:48:09.454Z,83.98
2017-05-26T01:48:25.932Z,84.27
2017-05-26T01:49:52.117Z,83.89
2017-05-26T01:50:08.044Z,84.27
2017-05-26T01:51:35.017Z,84.27
2017-05-26T01:51:47.902Z,83.51
2017-05-26T01:53:31.376Z,83.22
2017-05-26T01:54:30.698Z,83.41
2017-05-26T01:55:30.452Z,83.51
2017-05-26T01:56:47.585Z,83.6
2017-05-26T01:58:46.834Z,82.74
2017-05-26T01:59:12.766Z,82.54
2017-05-26T01:59:26.213Z,82.54
2017-05-26T01:59:39.134Z,83.03
2017-05-26T02:02:51.482Z,83.22
2017-05-26T02:06:30.392Z,83.31
2017-05-26T02:09:59.226Z,83.12
2017-05-26T02:11:32.798Z,82.45
2017-05-26T02:15:19.596Z,81.87
2017-05-26T02:16:27.917Z,82.07
2017-05-26T02:19:03.018Z,81.97
2017-05-26T02:20:23.750Z,81.78
2017-05-26T02:23:30.719Z,82.26
2017-05-26T02:24:14.782Z,81.87
2017-05-26T02:25:45.608Z,81.78
2017-05-26T02:26:30.925Z,82.16
2017-05-26T02:27:49.954Z,82.35
2017-05-26T02:29:05.855Z,81.97
2017-05-26T02:33:15.591Z,82.45
2017-05-26T02:35:33.780Z,82.26
2017-05-26T02:37:33.868Z,82.26
2017-05-26T02:39:47.360Z,81.87
2017-05-26T02:40:18.600Z,81.87
2017-05-26T02:41:32.950Z,81.59
2017-05-26T02:41:47.140Z,81.59
2017-05-26T02:42:38.214Z,81.4
2017-05-26T02:43:22.717Z,81.49
2017-05-26T02:44:07.265Z,81.59
2017-05-26T02:44:22.869Z,81.4
2017-05-26T02:44:36.336Z,81.68
2017-05-26T02:45:20.858Z,81.49
2017-05-26T02:46:39.892Z,81.78
2017-05-26T02:47:30.263Z,81.49
2017-05-26T02:49:56.785Z,81.78
2017-05-26T02:50:27.945Z,81.68
2017-05-26T02:51:01.550Z,81.4
2017-05-26T02:51:43.487Z,81.1
2017-05-26T02:52:09.168Z,81.4
2017-05-26T02:53:00.008Z,81.16
2017-05-26T02:53:35.891Z,81.1
2017-05-26T02:54:06.627Z,81.07
2017-05-26T02:54:57.066Z,81.07
2017-05-26T02:56:03.690Z,81.35
2017-05-26T02:57:39.610Z,80.49
2017-05-26T02:58:16.570Z,80.58
2017-05-26T03:00:08.744Z,80.97
2017-05-26T03:00:52.751Z,80.43
2017-05-26T03:01:09.069Z,80.4
2017-05-26T03:02:16.101Z,80.58
2017-05-26T03:02:32.780Z,80.58
2017-05-26T03:02:46.913Z,79.91
2017-05-26T03:03:01.173Z,80.01
2017-05-26T03:03:57.787Z,80.01
2017-05-26T03:04:26.230Z,80.01
2017-05-26T03:05:11.725Z,79.91
2017-05-26T03:05:25.447Z,80.01
2017-05-26T03:05:38.461Z,80.11
2017-05-26T03:05:51.381Z,79.72
2017-05-26T03:06:07.516Z,79.72
2017-05-26T03:06:20.444Z,80.01
2017-05-26T03:06:34.695Z,79.91
2017-05-26T03:06:51.381Z,79.91
2017-05-26T03:07:05.691Z,79.34
2017-05-26T03:07:18.631Z,79.34
2017-05-26T03:07:32.098Z,79.44
2017-05-26T03:07:45.472Z,79.44
2017-05-26T03:07:58.323Z,79.24
2017-05-26T03:08:11.805Z,79.34
2017-05-26T03:08:24.226Z,79.53
2017-05-26T03:08:36.590Z,79.44
2017-05-26T03:08:52.157Z,79.34
2017-05-26T03:09:08.880Z,79.63
2017-05-26T03:09:21.816Z,79.05
2017-05-26T03:09:36.026Z,79.24
2017-05-26T03:09:50.954Z,79.14
2017-05-26T03:10:15.411Z,78.96
2017-05-26T03:10:28.951Z,78.96
2017-05-26T03:10:42.378Z,79.14
2017-05-26T03:10:55.306Z,79.14
2017-05-26T03:11:10.928Z,79.24
2017-05-26T03:11:33.388Z,78.86
2017-05-26T03:12:15.996Z,78.67
2017-05-26T03:12:45.898Z,78.47
2017-05-26T03:12:59.842Z,78.09
2017-05-26T03:13:25.223Z,78.32
2017-05-26T03:13:45.764Z,78.32
2017-05-26T03:13:59.288Z,78.23
2017-05-26T03:14:15.434Z,78.32
2017-05-26T03:14:40.039Z,78.03
2017-05-26T03:14:56.330Z,77.94
2017-05-26T03:15:11.791Z,77.75
2017-05-26T03:15:30.449Z,78.03
2017-05-26T03:15:46.256Z,77.94
2017-05-26T03:16:18.223Z,78.03
2017-05-26T03:17:37.481Z,78.13
2017-05-26T03:18:51.875Z,78.61
2017-05-26T03:19:09.996Z,79.32
2017-05-26T03:19:56.786Z,79.52
2017-05-26T03:20:21.807Z,79.42
2017-05-26T03:20:37.511Z,79.9
2017-05-26T03:21:05.255Z,80.76
2017-05-26T03:21:22.840Z,81.15
2017-05-26T03:22:07.524Z,80.96
2017-05-26T03:22:23.804Z,81.15
2017-05-26T03:22:38.050Z,81.82
2017-05-26T03:22:55.890Z,81.63
2017-05-26T03:23:13.049Z,82.01
2017-05-26T03:23:26.660Z,82.01
2017-05-26T03:23:42.150Z,82.4
2017-05-26T03:23:55.628Z,81.53
2017-05-26T03:24:29.775Z,82.3
2017-05-26T03:25:07.544Z,82.3
2017-05-26T03:25:20.941Z,82.1
2017-05-26T03:26:03.956Z,82.3
2017-05-26T03:26:43.803Z,82.3
2017-05-26T03:27:34.432Z,82.01
2017-05-26T03:27:58.348Z,81.53
2017-05-26T03:28:24.017Z,81.59
2017-05-26T03:28:38.219Z,81.87
2017-05-26T03:28:51.901Z,81.78
2017-05-26T03:29:20.962Z,81.87
2017-05-26T03:29:36.312Z,81.49
2017-05-26T03:29:54.972Z,81.68
2017-05-26T03:30:08.659Z,82.07
2017-05-26T03:30:40.164Z,81.87
2017-05-26T03:30:55.274Z,81.87
2017-05-26T03:31:11.216Z,81.68
2017-05-26T03:31:32.307Z,81.78
2017-05-26T03:31:45.734Z,81.49
2017-05-26T03:31:59.219Z,81.3
2017-05-26T03:32:16.191Z,81.2
2017-05-26T03:32:35.973Z,81.01
2017-05-26T03:32:49.445Z,81.2
2017-05-26T03:33:03.529Z,81.01
2017-05-26T03:33:17.010Z,80.82
2017-05-26T03:33:34.021Z,80.53
2017-05-26T03:33:47.101Z,80.53
2017-05-26T03:34:04.725Z,80.53
2017-05-26T03:34:24.494Z,80.43
2017-05-26T03:34:45.470Z,80.34
2017-05-26T03:35:09.111Z,80.43
2017-05-26T03:35:22.153Z,80.34
2017-05-26T03:35:41.343Z,80.43
2017-05-26T03:35:55.041Z,80.53
2017-05-26T03:36:08.447Z,80.24
2017-05-26T03:36:41.540Z,80.53
2017-05-26T03:36:55.106Z,80.63
2017-05-26T03:37:09.277Z,80.43
2017-05-26T03:37:25.245Z,80.63
2017-05-26T03:37:40.610Z,80.24
2017-05-26T03:37:57.042Z,80.34
2017-05-26T03:38:12.587Z,80.05
2017-05-26T03:38:26.802Z,80.01
2017-05-26T03:38:58.722Z,80.24
2017-05-26T03:39:14.423Z,79.76
2017-05-26T03:39:46.460Z,80.05
2017-05-26T03:39:59.882Z,80.2
2017-05-26T03:41:02.167Z,79.38
2017-05-26T03:41:27.350Z,79.34
2017-05-26T03:41:41.333Z,79.76
2017-05-26T03:42:00.403Z,79.63
2017-05-26T03:42:14.077Z,79.44
2017-05-26T03:42:45.757Z,79.24
2017-05-26T03:43:15.936Z,79.34
2017-05-26T03:43:29.638Z,79.53
2017-05-26T03:43:46.011Z,79.63
2017-05-26T03:44:10.332Z,79.63
2017-05-26T03:44:26.800Z,79.34
2017-05-26T03:44:41.227Z,79.34
2017-05-26T03:44:56.491Z,78.96
2017-05-26T03:45:22.937Z,78.86
2017-05-26T03:45:36.339Z,79.14
2017-05-26T03:45:49.761Z,79.14
2017-05-26T03:46:16.112Z,79.05
2017-05-26T03:46:30.340Z,79.24
2017-05-26T03:46:44.986Z,79.24
2017-05-26T03:47:05.968Z,79.14
2017-05-26T03:47:34.155Z,79.24
2017-05-26T03:48:30.180Z,79.05
2017-05-26T03:48:43.697Z,79.24
2017-05-26T03:49:00.971Z,79.63
2017-05-26T03:49:15.377Z,79.72
2017-05-26T03:49:29.217Z,80.01
2017-05-26T03:49:42.999Z,80.01
2017-05-26T03:49:57.223Z,79.44
2017-05-26T03:50:11.903Z,80.11
2017-05-26T03:50:24.252Z,80.2
2017-05-26T03:50:37.803Z,80.11
2017-05-26T03:50:53.963Z,79.82
2017-05-26T03:51:06.878Z,79.34
2017-05-26T03:51:21.178Z,80.11
2017-05-26T03:51:35.877Z,80.11
2017-05-26T03:51:50.055Z,79.91
2017-05-26T03:52:03.156Z,80.4
2017-05-26T03:52:16.535Z,79.91
2017-05-26T03:52:31.315Z,80.2
2017-05-26T03:52:44.753Z,80.01
2017-05-26T03:52:58.174Z,80.01
2017-05-26T03:53:12.298Z,80.3
2017-05-26T03:53:24.744Z,80.2
2017-05-26T03:53:40.647Z,79.53
2017-05-26T03:53:55.824Z,79.72
2017-05-26T03:54:09.449Z,79.53
2017-05-26T03:54:24.567Z,79.63
2017-05-26T03:54:39.480Z,79.53
2017-05-26T03:54:53.929Z,79.34
2017-05-26T03:55:07.389Z,79.49
2017-05-26T03:55:20.919Z,78.92
2017-05-26T03:55:33.907Z,79.21
2017-05-26T03:55:47.357Z,79.21
2017-05-26T03:56:00.234Z,79.24
2017-05-26T03:56:13.123Z,79.21
2017-05-26T03:56:26.807Z,78.63
2017-05-26T03:56:40.410Z,78.53
2017-05-26T03:56:53.851Z,78.77
2017-05-26T03:57:07.269Z,79.11
2017-05-26T03:57:20.722Z,77.86
2017-05-26T03:57:33.615Z,78.34
2017-05-26T03:57:46.043Z,78.19
2017-05-26T03:57:59.029Z,78.15
2017-05-26T03:58:11.981Z,78.25
2017-05-26T03:58:24.585Z,78.15
2017-05-26T03:58:37.500Z,78.25
2017-05-26T03:58:52.186Z,78.34
2017-05-26T03:59:05.132Z,78.09
2017-05-26T03:59:18.588Z,78.05
2017-05-26T03:59:32.113Z,78.15
2017-05-26T03:59:45.040Z,77.67
2017-05-26T03:59:57.933Z,77.86
2017-05-26T04:00:10.837Z,77.86
2017-05-26T04:00:24.337Z,77.95
2017-05-26T04:00:37.869Z,77.86
2017-05-26T04:00:51.429Z,77.95
2017-05-26T04:01:04.820Z,78.05
2017-05-26T04:01:17.745Z,77.61
2017-05-26T04:01:30.620Z,77.48
2017-05-26T04:01:43.580Z,77.48
2017-05-26T04:01:57.021Z,77.38
2017-05-26T04:02:09.486Z,77.19
2017-05-26T04:02:25.839Z,77.19
2017-05-26T04:02:38.787Z,76.9
2017-05-26T04:02:52.431Z,77.29
2017-05-26T04:03:05.900Z,76.81
2017-05-26T04:03:18.826Z,76.81
2017-05-26T04:03:32.306Z,76.71
2017-05-26T04:03:45.750Z,76.9
2017-05-26T04:03:59.960Z,76.81
2017-05-26T04:04:13.366Z,76.9
2017-05-26T04:04:26.300Z,76.9
2017-05-26T04:04:38.942Z,77.04
2017-05-26T04:04:52.452Z,76.9
2017-05-26T04:05:04.953Z,77.19
2017-05-26T04:05:18.338Z,76.71
2017-05-26T04:05:33.296Z,76.42
2017-05-26T04:05:46.718Z,76.52
2017-05-26T04:05:59.147Z,76.71
2017-05-26T04:06:13.306Z,76.81
2017-05-26T04:06:26.271Z,76.42
2017-05-26T04:06:39.886Z,76.32
2017-05-26T04:06:53.350Z,76.32
2017-05-26T04:07:05.702Z,76.04
2017-05-26T04:07:18.032Z,76.42
2017-05-26T04:07:31.456Z,76.42
2017-05-26T04:07:44.916Z,75.46
2017-05-26T04:07:58.324Z,75.85
2017-05-26T04:08:11.274Z,75.85
2017-05-26T04:08:24.112Z,75.75
2017-05-26T04:08:36.955Z,75.85
2017-05-26T04:08:50.318Z,75.98
2017-05-26T04:09:03.803Z,75.95
2017-05-26T04:09:17.338Z,75.37
2017-05-26T04:09:30.712Z,75.79
2017-05-26T04:09:43.609Z,75.6
2017-05-26T04:09:57.072Z,75.27
2017-05-26T04:10:10.457Z,75.56
2017-05-26T04:10:23.892Z,75.46
2017-05-26T04:10:37.337Z,75.37
2017-05-26T04:10:50.779Z,75.37
2017-05-26T04:11:04.221Z,75.5
2017-05-26T04:11:17.676Z,75.46
2017-05-26T04:11:30.606Z,75.46
2017-05-26T04:11:44.011Z,75.46
2017-05-26T04:11:57.468Z,75.46
2017-05-26T04:12:10.350Z,75.75
2017-05-26T04:12:23.784Z,75.27
2017-05-26T04:12:37.234Z,75.18
2017-05-26T04:12:50.193Z,75.5
2017-05-26T04:13:03.609Z,75.46
2017-05-26T04:13:16.992Z,75.12
2017-05-26T04:13:29.910Z,75.27
2017-05-26T04:13:43.385Z,74.98
2017-05-26T04:13:56.771Z,75.18
2017-05-26T04:14:10.221Z,75.18
2017-05-26T04:14:23.657Z,74.93
2017-05-26T04:14:37.102Z,75.08
2017-05-26T04:14:50.020Z,74.51
2017-05-26T04:15:03.424Z,74.98
2017-05-26T04:15:16.323Z,74.41
2017-05-26T04:15:28.699Z,74.69
2017-05-26T04:15:42.114Z,74.69
2017-05-26T04:15:55.561Z,74.6
2017-05-26T04:16:08.979Z,74.51
2017-05-26T04:16:22.485Z,74.73
2017-05-26T04:16:35.929Z,74.51
2017-05-26T04:16:48.838Z,74.51
2017-05-26T04:17:02.267Z,74.35
2017-05-26T04:17:14.616Z,74.51
2017-05-26T04:17:27.439Z,74.41
2017-05-26T04:17:40.339Z,74.44
2017-05-26T04:17:53.286Z,74.22
2017-05-26T04:18:06.745Z,74.26
2017-05-26T04:18:20.166Z,74.51
2017-05-26T04:18:33.671Z,74.73
2017-05-26T04:18:46.035Z,74.6
2017-05-26T04:18:58.946Z,74.54
2017-05-26T04:19:11.840Z,74.6
2017-05-26T04:19:24.681Z,74.79
2017-05-26T04:19:38.025Z,73.93
2017-05-26T04:19:51.435Z,74.22
2017-05-26T04:20:04.863Z,74.51
2017-05-26T04:20:17.791Z,74.44
2017-05-26T04:20:30.723Z,74.12
2017-05-26T04:20:44.181Z,74.02
2017-05-26T04:20:57.019Z,74.22
2017-05-26T04:21:10.353Z,74.41
2017-05-26T04:21:22.670Z,74.41
2017-05-26T04:21:36.101Z,74.51
2017-05-26T04:21:48.967Z,74.31
2017-05-26T04:22:02.472Z,74.41
2017-05-26T04:22:15.346Z,73.83
2017-05-26T04:22:28.872Z,73.93
2017-05-26T04:22:42.199Z,74.02
2017-05-26T04:22:55.600Z,74.26
2017-05-26T04:23:09.000Z,74.35
2017-05-26T04:23:21.932Z,73.74
2017-05-26T04:23:35.310Z,73.77
2017-05-26T04:23:48.682Z,74.26
2017-05-26T04:24:01.586Z,74.22
2017-05-26T04:24:14.956Z,74.22
2017-05-26T04:24:28.680Z,74.26
2017-05-26T04:24:42.131Z,74.16
2017-05-26T04:24:55.083Z,73.97
2017-05-26T04:25:08.023Z,74.06
2017-05-26T04:25:21.457Z,74.06
2017-05-26T04:25:34.927Z,74.26
2017-05-26T04:25:48.328Z,73.87
2017-05-26T04:26:01.717Z,73.87
2017-05-26T04:26:15.165Z,73.87
2017-05-26T04:26:28.057Z,73.77
2017-05-26T04:26:41.558Z,73.83
2017-05-26T04:26:54.409Z,74.35
2017-05-26T04:27:07.347Z,74.26
2017-05-26T04:27:20.241Z,73.77
2017-05-26T04:27:33.666Z,74.35
2017-05-26T04:27:45.991Z,74.35
2017-05-26T04:27:59.426Z,74.16
2017-05-26T04:28:12.358Z,74.44
2017-05-26T04:28:25.810Z,74.6
2017-05-26T04:28:39.269Z,74.26
2017-05-26T04:28:52.794Z,74.22
2017-05-26T04:29:05.142Z,74.54
2017-05-26T04:29:18.489Z,74.6
2017-05-26T04:29:31.409Z,74.22
2017-05-26T04:29:44.258Z,74.22
2017-05-26T04:29:57.123Z,74.51
2017-05-26T04:30:08.976Z,74.51
2017-05-26T04:30:21.860Z,74.51
2017-05-26T04:30:35.260Z,74.31
2017-05-26T04:30:48.706Z,74.35
2017-05-26T04:31:02.171Z,74.22
2017-05-26T04:31:14.998Z,74.26
2017-05-26T04:31:27.850Z,74.51
2017-05-26T04:31:40.749Z,74.6
2017-05-26T04:31:54.151Z,74.22
2017-05-26T04:32:07.047Z,74.26
2017-05-26T04:32:19.959Z,74.51
2017-05-26T04:32:32.818Z,74.51
2017-05-26T04:32:46.224Z,74.22
2017-05-26T04:32:59.098Z,74.31
2017-05-26T04:33:12.081Z,74.54
2017-05-26T04:33:24.998Z,74.54
2017-05-26T04:33:38.359Z,74.51
2017-05-26T04:33:51.761Z,74.22
2017-05-26T04:34:05.177Z,74.31
2017-05-26T04:34:17.589Z,73.74
2017-05-26T04:34:31.025Z,73.83
2017-05-26T04:34:44.496Z,73.83
2017-05-26T04:34:57.897Z,73.83
2017-05-26T04:35:11.340Z,73.83
2017-05-26T04:35:24.773Z,74.26
2017-05-26T04:35:37.616Z,73.83
2017-05-26T04:35:51.061Z,73.83
2017-05-26T04:36:03.348Z,73.83
2017-05-26T04:36:16.205Z,74.22
2017-05-26T04:36:29.039Z,74.06
2017-05-26T04:36:42.454Z,73.87
2017-05-26T04:36:55.913Z,74.02
2017-05-26T04:37:08.821Z,74.26
2017-05-26T04:37:22.170Z,74.12
2017-05-26T04:37:35.101Z,74.12
2017-05-26T04:37:48.075Z,74.02
2017-05-26T04:38:01.044Z,74.02
2017-05-26T04:38:13.961Z,74.16
2017-05-26T04:38:27.355Z,74.02
2017-05-26T04:38:40.277Z,73.83
2017-05-26T04:38:53.237Z,74.12
2017-05-26T04:39:06.641Z,74.16
2017-05-26T04:39:20.061Z,74.26
2017-05-26T04:39:33.190Z,73.74
2017-05-26T04:39:46.592Z,74.06
2017-05-26T04:39:59.462Z,73.58
2017-05-26T04:40:11.840Z,73.58
2017-05-26T04:40:25.254Z,73.87
2017-05-26T04:40:38.150Z,73.87
2017-05-26T04:40:51.011Z,74.26
2017-05-26T04:41:03.928Z,73.77
2017-05-26T04:41:17.408Z,74.26
2017-05-26T04:41:30.929Z,74.26
2017-05-26T04:41:44.274Z,74.26
2017-05-26T04:41:57.752Z,74.26
2017-05-26T04:42:11.118Z,74.26
2017-05-26T04:42:24.564Z,74.35
2017-05-26T04:42:37.398Z,73.97
2017-05-26T04:42:50.748Z,74.26
2017-05-26T04:43:04.144Z,74.26
2017-05-26T04:43:17.051Z,74.26
2017-05-26T04:43:29.995Z,73.97
2017-05-26T04:43:42.897Z,74.06
2017-05-26T04:43:56.321Z,73.97
2017-05-26T04:44:09.716Z,74.06
2017-05-26T04:44:21.589Z,74.06
2017-05-26T04:44:35.000Z,74.35
2017-05-26T04:44:48.499Z,74.26
2017-05-26T04:45:01.941Z,73.97
2017-05-26T04:45:14.833Z,73.77
2017-05-26T04:45:27.758Z,74.35
2017-05-26T04:45:40.195Z,73.87
2017-05-26T04:45:53.608Z,74.26
2017-05-26T04:46:07.083Z,74.26
2017-05-26T04:46:20.014Z,74.06
2017-05-26T04:46:33.432Z,74.16
2017-05-26T04:46:46.330Z,73.97
2017-05-26T04:46:59.214Z,74.06
2017-05-26T04:47:11.047Z,73.97
2017-05-26T04:47:24.417Z,74.26
2017-05-26T04:47:37.252Z,74.16
2017-05-26T04:47:50.651Z,73.87
2017-05-26T04:48:03.597Z,74.26
2017-05-26T04:48:17.061Z,74.16
2017-05-26T04:48:30.442Z,74.16
2017-05-26T04:48:43.325Z,74.16
2017-05-26T04:48:56.738Z,73.97
2017-05-26T04:49:10.157Z,74.16
2017-05-26T04:49:22.997Z,74.26
2017-05-26T04:49:36.420Z,74.06
2017-05-26T04:49:49.378Z,74.16
2017-05-26T04:50:02.818Z,74.16
2017-05-26T04:50:16.216Z,74.26
2017-05-26T04:50:29.657Z,73.87
2017-05-26T04:50:42.022Z,74.35
2017-05-26T04:50:55.412Z,73.77
2017-05-26T04:51:08.407Z,74.26
2017-05-26T04:51:21.372Z,74.26
2017-05-26T04:51:34.776Z,74.64
2017-05-26T04:51:48.220Z,74.54
2017-05-26T04:52:01.708Z,74.35
2017-05-26T04:52:15.107Z,74.26
2017-05-26T04:52:28.632Z,74.44
2017-05-26T04:52:41.019Z,74.26
2017-05-26T04:52:54.448Z,74.26
2017-05-26T04:53:07.939Z,74.26
2017-05-26T04:53:20.333Z,74.64
2017-05-26T04:53:33.859Z,74.35
2017-05-26T04:53:47.341Z,74.54
2017-05-26T04:54:00.808Z,74.26
2017-05-26T04:54:13.710Z,74.26
2017-05-26T04:54:26.641Z,74.44
2017-05-26T04:54:40.325Z,74.44
2017-05-26T04:54:53.665Z,74.35
2017-05-26T04:55:07.112Z,74.35
2017-05-26T04:55:20.033Z,74.26
2017-05-26T04:55:33.434Z,74.16
2017-05-26T04:55:45.816Z,74.16
2017-05-26T04:55:59.206Z,74.26
2017-05-26T04:56:12.709Z,74.44
2017-05-26T04:56:25.131Z,74.26
2017-05-26T04:56:38.557Z,74.41
2017-05-26T04:56:51.963Z,74.16
2017-05-26T04:57:05.322Z,74.64
2017-05-26T04:57:18.167Z,74.79
2017-05-26T04:57:31.668Z,74.83
2017-05-26T04:57:45.016Z,74.89
2017-05-26T04:57:58.450Z,74.93
2017-05-26T04:58:11.932Z,74.79
2017-05-26T04:58:25.289Z,74.6
2017-05-26T04:58:38.705Z,74.6
2017-05-26T04:58:52.221Z,74.73
2017-05-26T04:59:05.643Z,74.41
2017-05-26T04:59:19.168Z,74.12
2017-05-26T04:59:31.588Z,74.44
2017-05-26T04:59:45.044Z,74.12
2017-05-26T04:59:58.387Z,74.26
2017-05-26T05:00:11.349Z,74.79
2017-05-26T05:00:24.713Z,74.89
2017-05-26T05:00:38.112Z,74.69
2017-05-26T05:00:51.111Z,74.51
2017-05-26T05:01:04.026Z,74.35
2017-05-26T05:01:17.437Z,74.41
2017-05-26T05:01:29.858Z,74.02
2017-05-26T05:01:42.257Z,74.31
2017-05-26T05:01:55.647Z,74.41
2017-05-26T05:02:09.122Z,74.31
2017-05-26T05:02:21.552Z,74.51
2017-05-26T05:02:34.485Z,74.51
2017-05-26T05:02:47.395Z,74.35
2017-05-26T05:03:00.342Z,74.44
2017-05-26T05:03:13.811Z,74.12
2017-05-26T05:03:27.227Z,74.31
2017-05-26T05:03:40.662Z,74.51
2017-05-26T05:03:53.564Z,74.54
2017-05-26T05:04:06.972Z,74.44
2017-05-26T05:04:19.833Z,74.31
2017-05-26T05:04:33.176Z,74.41
2017-05-26T05:04:46.040Z,74.31
2017-05-26T05:04:59.549Z,74.54
2017-05-26T05:05:11.957Z,74.51
2017-05-26T05:05:24.369Z,74.51
2017-05-26T05:05:36.805Z,74.51
2017-05-26T05:05:50.242Z,74.44
2017-05-26T05:06:03.663Z,74.12
2017-05-26T05:06:17.108Z,74.51
2017-05-26T05:06:30.463Z,74.41
2017-05-26T05:06:43.816Z,74.35
2017-05-26T05:06:57.257Z,74.31
2017-05-26T05:07:10.212Z,74.41
2017-05-26T05:07:23.111Z,74.51
2017-05-26T05:07:35.975Z,74.35
2017-05-26T05:07:49.422Z,74.41
2017-05-26T05:08:02.273Z,74.31
2017-05-26T05:08:15.757Z,74.51
2017-05-26T05:08:28.681Z,74.51
2017-05-26T05:08:42.119Z,74.51
2017-05-26T05:08:54.970Z,74.54
2017-05-26T05:09:08.324Z,74.6
2017-05-26T05:09:21.247Z,74.6
2017-05-26T05:09:34.179Z,74.51
2017-05-26T05:09:47.341Z,74.31
2017-05-26T05:10:00.275Z,74.22
2017-05-26T05:10:13.146Z,74.26
2017-05-26T05:10:26.543Z,74.41
2017-05-26T05:10:38.859Z,74.41
2017-05-26T05:10:51.760Z,74.54
2017-05-26T05:11:05.166Z,74.22
2017-05-26T05:11:18.053Z,74.51